Weather at Juneau International Airport

Public forecast

Using degrees Fahrenheit for public forecast. Weather courtesy of forecast.io.

Current aviation weather report (METAR) for Juneau International Airport

2024/05/18 18:53 (retrieved 38 minutes ago)

PAJN 181853Z VRB06KT 10SM FEW030 SCT042 BKN055 11/02 A3013

Aviation forecast (TAF) for Juneau International Airport

2024/05/18 18:22 (retrieved 1 hour ago)

TAF PAJN 181720Z 1818/1918 28008KT P6SM FEW030 SCT050 FM190400 VRB04KT P6SM OVC050